createdAt,value
2018-10-19T00:01:41.929Z,102101.64
2018-10-19T00:04:10.237Z,102097.75
2018-10-19T00:06:38.548Z,102099.00
2018-10-19T00:09:07.491Z,102101.02
2018-10-19T00:11:35.184Z,102109.67
2018-10-19T00:14:04.071Z,102110.23
2018-10-19T00:16:32.372Z,102105.61
2018-10-19T00:19:00.103Z,102103.52
2018-10-19T00:21:28.411Z,102110.09
2018-10-19T00:23:56.725Z,102111.30
2018-10-19T00:26:25.179Z,102113.69
2018-10-19T00:28:53.947Z,102112.83
2018-10-19T00:31:22.249Z,102108.86
2018-10-19T00:33:49.982Z,102113.06
2018-10-19T00:36:18.871Z,102108.89
2018-10-19T00:38:47.188Z,102109.37
2018-10-19T00:41:14.996Z,102112.82
2018-10-19T00:43:43.812Z,102112.21
2018-10-19T00:46:12.112Z,102115.25
2018-10-19T00:48:40.422Z,102111.55
2018-10-19T00:51:08.600Z,102112.48
2018-10-19T00:53:37.333Z,102119.30
2018-10-19T00:56:05.707Z,102119.78
2018-10-19T00:58:33.441Z,102125.92
2018-10-19T01:01:03.298Z,102121.71
2018-10-19T01:03:30.346Z,102120.51
2018-10-19T01:05:58.657Z,102118.56
2018-10-19T01:08:26.968Z,102121.73
2018-10-19T01:10:55.900Z,102122.22
2018-10-19T01:13:24.144Z,102121.66
2018-10-19T01:15:51.942Z,102118.48
2018-10-19T01:18:20.838Z,102120.97
2018-10-19T01:20:49.160Z,102122.48
2018-10-19T01:23:16.971Z,102118.14
2018-10-19T01:25:45.192Z,102121.60
2018-10-19T01:28:13.509Z,102119.48
2018-10-19T01:30:41.823Z,102122.36
2018-10-19T01:33:10.214Z,102125.45
2018-10-19T01:35:39.012Z,102117.99
2018-10-19T01:38:06.746Z,102120.77
2018-10-19T01:40:35.053Z,102117.00
2018-10-19T01:43:03.360Z,102118.73
2018-10-19T01:45:32.247Z,102119.03
2018-10-19T01:48:00.559Z,102124.61
2018-10-19T01:50:28.289Z,102127.78
2018-10-19T01:52:56.616Z,102129.09
2018-10-19T01:55:25.490Z,102128.70
2018-10-19T01:57:53.800Z,102127.14
2018-10-19T02:00:22.110Z,102125.92
2018-10-19T02:02:50.697Z,102127.80
2018-10-19T02:05:18.430Z,102129.67
2018-10-19T02:07:47.665Z,102128.54
2018-10-19T02:10:15.391Z,102133.66
2018-10-19T02:12:43.702Z,102131.85
2018-10-19T02:15:12.638Z,102137.52
2018-10-19T02:17:40.354Z,102140.98
2018-10-19T02:20:09.241Z,102142.77
2018-10-19T02:22:36.974Z,102139.48
2018-10-19T02:25:05.306Z,102143.30
2018-10-19T02:27:33.593Z,102147.53
2018-10-19T02:30:01.944Z,102148.27
2018-10-19T02:32:30.808Z,102155.55
2018-10-19T02:34:58.560Z,102156.12
2018-10-19T02:37:27.423Z,102148.57
2018-10-19T02:39:55.737Z,102151.25
2018-10-19T02:42:23.476Z,102152.05
2018-10-19T02:44:51.810Z,102156.81
2018-10-19T02:47:20.098Z,102150.36
2018-10-19T02:49:48.408Z,102149.20
2018-10-19T02:52:17.293Z,102146.48
2018-10-19T02:54:45.598Z,102142.98
2018-10-19T02:57:13.375Z,102147.59
2018-10-19T02:59:41.775Z,102147.14
2018-10-19T03:02:10.536Z,102149.71
2018-10-19T03:04:38.848Z,102151.65
2018-10-19T03:07:06.591Z,102146.75
2018-10-19T03:09:34.898Z,102147.13
2018-10-19T03:12:03.785Z,102147.13
2018-10-19T03:14:31.514Z,102143.20
2018-10-19T03:16:59.881Z,102141.78
2018-10-19T03:19:28.168Z,102139.20
2018-10-19T03:21:56.613Z,102136.94
2018-10-19T03:24:25.377Z,102138.06
2018-10-19T03:26:53.142Z,102141.77
2018-10-19T03:29:21.536Z,102144.94
2018-10-19T03:31:50.341Z,102145.09
2018-10-19T03:34:18.645Z,102143.67
2018-10-19T03:36:46.377Z,102146.67
2018-10-19T03:39:14.747Z,102148.61
2018-10-19T03:41:43.593Z,102151.54
2018-10-19T03:44:11.505Z,102156.35
2018-10-19T03:46:39.625Z,102157.08
2018-10-19T03:49:08.582Z,102162.43
2018-10-19T03:51:36.247Z,102160.75
2018-10-19T03:54:05.131Z,102159.69
2018-10-19T03:56:33.448Z,102161.81
2018-10-19T03:59:01.242Z,102162.59
2018-10-19T04:01:30.072Z,102167.31
2018-10-19T04:03:57.847Z,102167.72
2018-10-19T04:06:26.113Z,102166.56
2018-10-19T04:08:54.448Z,102175.21
2018-10-19T04:11:22.753Z,102173.44
2018-10-19T04:13:51.064Z,102174.52
2018-10-19T04:16:19.951Z,102177.09
2018-10-19T04:18:47.716Z,102178.95
2018-10-19T04:21:16.670Z,102177.88
2018-10-19T04:23:44.936Z,102177.44
2018-10-19T04:26:13.251Z,102178.06
2018-10-19T04:28:41.586Z,102182.59
2018-10-19T04:31:09.902Z,102180.88
2018-10-19T04:33:38.230Z,102182.71
2018-10-19T04:36:05.979Z,102184.27
2018-10-19T04:38:34.300Z,102188.47
2018-10-19T04:41:02.644Z,102190.08
2018-10-19T04:43:31.209Z,102191.13
2018-10-19T04:45:59.872Z,102191.69
2018-10-19T04:48:28.235Z,102198.20
2018-10-19T04:50:55.992Z,102194.95
2018-10-19T04:53:24.873Z,102197.38
2018-10-19T04:55:52.650Z,102201.23
2018-10-19T04:58:21.502Z,102194.72
2018-10-19T05:00:49.818Z,102188.92
2018-10-19T05:03:18.190Z,102193.78
2018-10-19T05:05:46.499Z,102200.39
2018-10-19T05:08:14.216Z,102199.06
2018-10-19T05:10:42.782Z,102201.81
2018-10-19T05:13:10.890Z,102206.04
2018-10-19T05:15:39.753Z,102208.31
2018-10-19T05:18:07.793Z,102209.50
2018-10-19T05:20:36.757Z,102215.59
2018-10-19T05:23:04.762Z,102215.61
2018-10-19T05:25:33.416Z,102217.41
2018-10-19T05:28:01.161Z,102220.37
2018-10-19T05:30:29.500Z,102223.02
2018-10-19T05:32:58.457Z,102222.18
2018-10-19T05:35:26.729Z,102225.03
2018-10-19T05:37:54.484Z,102225.33
2018-10-19T05:40:22.791Z,102228.31
2018-10-19T05:42:51.715Z,102227.09
2018-10-19T05:45:19.450Z,102225.94
2018-10-19T05:47:47.767Z,102231.13
2018-10-19T05:50:16.754Z,102234.94
2018-10-19T05:52:44.997Z,102236.34
2018-10-19T05:55:13.316Z,102236.55
2018-10-19T05:57:41.626Z,102236.19
2018-10-19T06:00:09.975Z,102237.27
2018-10-19T06:02:39.125Z,102239.91
2018-10-19T06:05:07.395Z,102240.11
2018-10-19T06:07:35.653Z,102244.28
2018-10-19T06:10:03.984Z,102246.64
2018-10-19T06:12:32.300Z,102252.00
2018-10-19T06:15:00.649Z,102254.30
2018-10-19T06:17:28.391Z,102253.95
2018-10-19T06:19:57.167Z,102260.55
2018-10-19T06:22:26.700Z,102261.09
2018-10-19T06:24:54.303Z,102261.19
2018-10-19T06:27:22.126Z,102262.72
2018-10-19T06:29:51.311Z,102259.91
2018-10-19T06:32:19.071Z,102258.04
2018-10-19T06:34:48.297Z,102260.94
2018-10-19T06:37:16.125Z,102264.42
2018-10-19T06:39:44.356Z,102266.63
2018-10-19T06:42:12.673Z,102267.82
2018-10-19T06:44:40.990Z,102267.89
2018-10-19T06:47:09.404Z,102269.39
2018-10-19T06:49:38.219Z,102267.83
2018-10-19T06:52:06.541Z,102277.93
2018-10-19T06:54:34.849Z,102278.09
2018-10-19T06:57:03.173Z,102279.91
2018-10-19T06:59:31.545Z,102286.20
2018-10-19T07:01:59.275Z,102288.20
2018-10-19T07:04:27.562Z,102288.40
2018-10-19T07:06:56.482Z,102289.83
2018-10-19T07:09:24.797Z,102290.72
2018-10-19T07:11:52.883Z,102295.11
2018-10-19T07:14:21.796Z,102297.77
2018-10-19T07:16:50.113Z,102296.51
2018-10-19T07:19:17.842Z,102298.79
2018-10-19T07:21:47.005Z,102302.21
2018-10-19T07:24:14.598Z,102306.00
2018-10-19T07:26:43.503Z,102310.12
2018-10-19T07:29:11.266Z,102308.60
2018-10-19T07:31:40.625Z,102312.76
2018-10-19T07:34:08.378Z,102310.66
2018-10-19T07:36:37.281Z,102310.13
2018-10-19T07:39:05.037Z,102313.20
2018-10-19T07:41:33.936Z,102309.17
2018-10-19T07:44:01.723Z,102311.03
2018-10-19T07:46:30.579Z,102314.39
2018-10-19T07:48:58.329Z,102312.19
2018-10-19T07:51:27.222Z,102309.86
2018-10-19T07:53:54.980Z,102307.71
2018-10-19T07:56:23.274Z,102312.13
2018-10-19T07:58:51.585Z,102306.89
2018-10-19T08:01:20.622Z,102314.06
2018-10-19T08:03:48.789Z,102316.03
2018-10-19T08:06:17.098Z,102317.58
2018-10-19T08:08:45.612Z,102320.33
2018-10-19T08:11:13.398Z,102319.06
2018-10-19T08:13:41.685Z,102319.47
2018-10-19T08:16:10.577Z,102327.77
2018-10-19T08:18:38.894Z,102326.05
2018-10-19T08:21:07.214Z,102328.57
2018-10-19T08:23:35.111Z,102336.73
2018-10-19T08:26:04.389Z,102341.20
2018-10-19T08:28:32.667Z,102334.59
2018-10-19T08:31:01.568Z,102335.55
2018-10-19T08:33:29.300Z,102332.34
2018-10-19T08:35:58.178Z,102337.12
2018-10-19T08:38:26.614Z,102335.50
2018-10-19T08:40:54.938Z,102336.17
2018-10-19T08:43:23.234Z,102341.72
2018-10-19T08:45:51.556Z,102342.02
2018-10-19T08:48:19.285Z,102342.53
2018-10-19T08:50:48.500Z,102343.51
2018-10-19T08:53:16.937Z,102346.30
2018-10-19T08:55:45.122Z,102346.59
2018-10-19T08:58:13.835Z,102348.34
2018-10-19T09:00:41.476Z,102346.16
2018-10-19T09:03:09.843Z,102344.56
2018-10-19T09:05:38.681Z,102340.39
2018-10-19T09:08:07.633Z,102341.13
2018-10-19T09:10:35.948Z,102338.52
2018-10-19T09:13:04.538Z,102340.25
2018-10-19T09:15:32.272Z,102346.00
2018-10-19T09:18:00.583Z,102346.47
2018-10-19T09:20:29.471Z,102351.11
2018-10-19T09:22:57.250Z,102345.54
2018-10-19T09:25:25.516Z,102351.16
2018-10-19T09:27:54.712Z,102345.14
2018-10-19T09:30:23.033Z,102340.02
2018-10-19T09:32:51.336Z,102341.00
2018-10-19T09:35:19.807Z,102341.11
2018-10-19T09:37:47.394Z,102343.47
2018-10-19T09:40:15.792Z,102344.49
2018-10-19T09:42:44.049Z,102347.19
2018-10-19T09:45:12.404Z,102348.17
2018-10-19T09:47:40.729Z,102348.75
2018-10-19T09:50:09.571Z,102348.66
2018-10-19T09:52:37.936Z,102351.17
2018-10-19T09:55:06.267Z,102355.23
2018-10-19T09:57:33.993Z,102347.28
2018-10-19T10:00:02.314Z,102346.62
2018-10-19T10:02:30.710Z,102345.22
2018-10-19T10:05:00.443Z,102348.12
2018-10-19T10:07:28.162Z,102345.92
2018-10-19T10:09:57.746Z,102341.95
2018-10-19T10:12:26.061Z,102336.80
2018-10-19T10:14:53.857Z,102333.70
2018-10-19T10:17:22.686Z,102333.43
2018-10-19T10:19:51.058Z,102332.81
2018-10-19T10:22:18.791Z,102335.65
2018-10-19T10:24:47.712Z,102336.97
2018-10-19T10:27:15.413Z,102340.76
2018-10-19T10:29:44.617Z,102339.74
2018-10-19T10:32:12.964Z,102335.54
2018-10-19T10:34:40.688Z,102333.97
2018-10-19T10:37:09.662Z,102337.12
2018-10-19T10:39:37.922Z,102335.37
2018-10-19T10:42:06.235Z,102333.66
2018-10-19T10:44:34.553Z,102332.48
2018-10-19T10:47:02.953Z,102335.22
2018-10-19T10:49:30.608Z,102333.19
2018-10-19T10:51:59.550Z,102333.30
2018-10-19T10:54:27.244Z,102335.70
2018-10-19T10:56:56.141Z,102333.09
2018-10-19T10:59:23.868Z,102328.27
2018-10-19T11:01:52.186Z,102328.81
2018-10-19T11:04:20.502Z,102324.72
2018-10-19T11:06:49.413Z,102323.97
2018-10-19T11:09:17.148Z,102322.67
2018-10-19T11:11:45.534Z,102329.69
2018-10-19T11:14:13.848Z,102327.94
2018-10-19T11:16:42.741Z,102324.87
2018-10-19T11:19:11.140Z,102329.08
2018-10-19T11:21:39.036Z,102324.98
2018-10-19T11:24:07.192Z,102332.50
2018-10-19T11:26:36.024Z,102333.26
2018-10-19T11:29:04.672Z,102329.38
2018-10-19T11:31:33.320Z,102328.89
2018-10-19T11:34:01.715Z,102332.63
2018-10-19T11:36:30.293Z,102334.82
2018-10-19T11:38:58.616Z,102329.17
2018-10-19T11:41:26.345Z,102335.22
2018-10-19T11:43:55.462Z,102327.73
2018-10-19T11:46:23.781Z,102324.52
2018-10-19T11:48:52.885Z,102329.89
2018-10-19T11:51:20.541Z,102332.45
2018-10-19T11:53:48.876Z,102326.40
2018-10-19T11:56:17.187Z,102333.66
2018-10-19T11:58:45.511Z,102326.42
2018-10-19T12:01:13.904Z,102334.82
2018-10-19T12:03:42.767Z,102336.55
2018-10-19T12:06:10.899Z,102333.00
2018-10-19T12:08:39.580Z,102333.22
2018-10-19T12:11:08.045Z,102331.39
2018-10-19T12:13:35.775Z,102332.23
2018-10-19T12:16:04.259Z,102327.68
2018-10-19T12:18:32.983Z,102324.66
2018-10-19T12:21:00.770Z,102325.22
2018-10-19T12:23:29.036Z,102325.31
2018-10-19T12:25:57.949Z,102325.41
2018-10-19T12:28:26.604Z,102324.20
2018-10-19T12:30:54.943Z,102319.47
2018-10-19T12:33:23.704Z,102322.77
2018-10-19T12:35:52.017Z,102318.49
2018-10-19T12:38:20.656Z,102318.91
2018-10-19T12:40:48.391Z,102320.17
2018-10-19T12:43:17.312Z,102318.47
2018-10-19T12:45:57.876Z,102314.75
2018-10-19T12:48:26.223Z,102322.77
2018-10-19T12:50:54.589Z,102325.73
2018-10-19T12:53:22.865Z,102329.55
2018-10-19T12:55:51.596Z,102327.60
2018-10-19T12:58:19.907Z,102322.77
2018-10-19T13:00:48.685Z,102317.25
2018-10-19T13:03:17.075Z,102309.78
2018-10-19T13:05:45.328Z,102312.36
2018-10-19T13:08:13.076Z,102314.98
2018-10-19T13:10:41.391Z,102308.05
2018-10-19T13:13:09.724Z,102314.34
2018-10-19T13:15:38.031Z,102309.86
2018-10-19T13:18:06.973Z,102315.77
2018-10-19T13:20:34.677Z,102315.09
2018-10-19T13:23:04.553Z,102314.90
2018-10-19T13:25:32.197Z,102313.49
2018-10-19T13:27:59.933Z,102312.51
2018-10-19T13:30:28.250Z,102309.17
2018-10-19T13:32:56.623Z,102310.98
2018-10-19T13:35:25.488Z,102307.39
2018-10-19T13:37:53.222Z,102305.17
2018-10-19T13:40:21.540Z,102301.72
2018-10-19T13:42:50.436Z,102301.33
2018-10-19T13:45:18.551Z,102299.94
2018-10-19T13:47:47.424Z,102303.97
2018-10-19T13:50:15.744Z,102303.54
2018-10-19T13:52:44.337Z,102303.63
2018-10-19T13:55:11.845Z,102305.62
2018-10-19T13:57:40.760Z,102305.72
2018-10-19T14:00:09.082Z,102306.44
2018-10-19T14:02:37.792Z,102302.16
2018-10-19T14:05:06.085Z,102299.55
2018-10-19T14:07:34.364Z,102295.19
2018-10-19T14:10:03.289Z,102291.58
2018-10-19T14:12:31.321Z,102296.48
2018-10-19T14:15:00.282Z,102293.78
2018-10-19T14:17:28.545Z,102295.95
2018-10-19T14:19:56.862Z,102300.10
2018-10-19T14:22:24.629Z,102307.09
2018-10-19T14:24:52.983Z,102305.11
2018-10-19T14:27:21.288Z,102303.72
2018-10-19T14:29:49.628Z,102301.00
2018-10-19T14:32:19.206Z,102294.70
2018-10-19T14:34:47.308Z,102299.08
2018-10-19T14:37:15.294Z,102297.47
2018-10-19T14:39:44.185Z,102296.79
2018-10-19T14:42:12.913Z,102294.81
2018-10-19T14:44:41.209Z,102286.88
2018-10-19T14:47:09.905Z,102289.19
2018-10-19T14:49:37.589Z,102288.11
2018-10-19T14:52:06.499Z,102291.69
2018-10-19T14:54:34.837Z,102288.59
2018-10-19T14:57:03.482Z,102295.71
2018-10-19T14:59:31.209Z,102291.80
2018-10-19T15:02:00.118Z,102298.95
2018-10-19T15:04:28.441Z,102299.61
2018-10-19T15:06:56.222Z,102301.51
2018-10-19T15:09:25.616Z,102308.78
2018-10-19T15:11:54.096Z,102308.15
2018-10-19T15:14:22.148Z,102311.84
2018-10-19T15:16:49.890Z,102308.12
2018-10-19T15:19:19.106Z,102310.01
2018-10-19T15:21:47.800Z,102306.78
2018-10-19T15:24:16.148Z,102310.18
2018-10-19T15:26:44.764Z,102313.39
2018-10-19T15:29:13.107Z,102308.78
2018-10-19T15:31:41.730Z,102308.55
2018-10-19T15:34:09.480Z,102312.25
2018-10-19T15:36:38.488Z,102312.41
2018-10-19T15:39:06.933Z,102319.38
2018-10-19T15:41:35.288Z,102311.82
2018-10-19T15:44:03.242Z,102309.52
2018-10-19T15:46:32.241Z,102311.59
2018-10-19T15:49:00.178Z,102310.05
2018-10-19T15:51:29.192Z,102308.89
2018-10-19T15:53:57.558Z,102306.74
2018-10-19T15:56:25.852Z,102314.31
2018-10-19T15:58:56.087Z,102316.94
2018-10-19T16:01:23.902Z,102316.57
2018-10-19T16:03:52.266Z,102315.54
2018-10-19T16:06:20.665Z,102323.30
2018-10-19T16:08:49.572Z,102325.07
2018-10-19T16:11:18.178Z,102325.33
2018-10-19T16:13:45.919Z,102321.84
2018-10-19T16:16:14.836Z,102322.77
2018-10-19T16:18:43.163Z,102324.50
2018-10-19T16:21:11.554Z,102323.62
2018-10-19T16:23:39.896Z,102321.48
2018-10-19T16:26:08.220Z,102324.96
2018-10-19T16:28:36.706Z,102323.48
2018-10-19T16:31:05.323Z,102323.27
2018-10-19T16:33:33.720Z,102320.25
2018-10-19T16:36:02.455Z,102317.52
2018-10-19T16:38:30.208Z,102323.55
2018-10-19T16:40:58.620Z,102323.96
2018-10-19T16:43:27.683Z,102327.97
2018-10-19T16:45:56.467Z,102330.03
2018-10-19T16:48:24.310Z,102323.44
2018-10-19T16:50:53.276Z,102328.17
2018-10-19T16:53:21.772Z,102328.06
2018-10-19T16:55:50.149Z,102330.39
2018-10-19T16:58:17.911Z,102331.79
2018-10-19T17:00:46.241Z,102323.55
2018-10-19T17:03:15.243Z,102318.92
2018-10-19T17:05:43.529Z,102315.25
2018-10-19T17:08:12.064Z,102316.05
2018-10-19T17:10:40.490Z,102315.70
2018-10-19T17:13:08.858Z,102319.05
2018-10-19T17:15:36.604Z,102320.61
2018-10-19T17:18:05.587Z,102321.25
2018-10-19T17:20:33.962Z,102317.56
2018-10-19T17:23:01.714Z,102317.91
2018-10-19T17:25:30.082Z,102318.48
2018-10-19T17:27:58.962Z,102320.38
2018-10-19T17:30:27.384Z,102325.52
2018-10-19T17:32:55.755Z,102322.16
2018-10-19T17:35:24.347Z,102325.52
2018-10-19T17:37:52.103Z,102327.39
2018-10-19T17:40:21.017Z,102324.90
2018-10-19T17:42:49.414Z,102328.60
2018-10-19T17:45:17.717Z,102331.17
2018-10-19T17:47:45.542Z,102329.38
2018-10-19T17:50:14.397Z,102337.87
2018-10-19T17:52:42.738Z,102338.20
2018-10-19T17:55:10.488Z,102336.81
2018-10-19T17:57:40.068Z,102339.77
2018-10-19T18:00:08.442Z,102337.59
2018-10-19T18:02:36.141Z,102338.13
2018-10-19T18:05:05.061Z,102338.27
2018-10-19T18:07:33.402Z,102339.03
2018-10-19T18:10:01.192Z,102339.80
2018-10-19T18:12:29.476Z,102338.89
2018-10-19T18:14:58.384Z,102346.99
2018-10-19T18:17:26.403Z,102353.14
2018-10-19T18:19:55.302Z,102356.33
2018-10-19T18:22:24.109Z,102353.58
2018-10-19T18:24:52.114Z,102351.21
2018-10-19T18:27:20.467Z,102354.23
2018-10-19T18:29:48.208Z,102359.63
2018-10-19T18:32:17.199Z,102365.36
2018-10-19T18:34:45.454Z,102366.79
2018-10-19T18:37:13.206Z,102363.47
2018-10-19T18:39:42.218Z,102364.53
2018-10-19T18:42:10.576Z,102364.80
2018-10-19T18:44:38.741Z,102373.69
2018-10-19T18:47:07.720Z,102370.99
2018-10-19T18:49:36.001Z,102373.05
2018-10-19T18:52:04.433Z,102378.13
2018-10-19T18:54:33.016Z,102374.66
2018-10-19T18:57:01.318Z,102375.77
2018-10-19T18:59:29.642Z,102378.37
2018-10-19T19:01:58.189Z,102383.80
2018-10-19T19:04:25.917Z,102388.98
2018-10-19T19:06:54.874Z,102389.41
2018-10-19T19:09:23.304Z,102387.55
2018-10-19T19:11:51.793Z,102390.03
2018-10-19T19:14:20.135Z,102391.94
2018-10-19T19:16:48.505Z,102393.98
2018-10-19T19:19:16.397Z,102390.69
2018-10-19T19:21:45.163Z,102386.78
2018-10-19T19:24:12.928Z,102385.47
2018-10-19T19:26:41.874Z,102385.16
2018-10-19T19:29:09.665Z,102388.30
2018-10-19T19:31:37.954Z,102385.93
2018-10-19T19:34:07.818Z,102386.63
2018-10-19T19:36:36.158Z,102385.87
2018-10-19T19:39:04.507Z,102384.77
2018-10-19T19:41:32.856Z,102384.12
2018-10-19T19:44:01.251Z,102389.97
2018-10-19T19:46:29.649Z,102391.97
2018-10-19T19:48:57.480Z,102392.51
2018-10-19T19:51:26.456Z,102399.27
2018-10-19T19:53:54.827Z,102398.52
2018-10-19T19:56:23.140Z,102400.15
2018-10-19T19:58:51.460Z,102399.55
2018-10-19T20:01:19.246Z,102400.88
2018-10-19T20:03:47.972Z,102402.37
2018-10-19T20:06:16.371Z,102401.72
2018-10-19T20:08:45.269Z,102396.75
2018-10-19T20:11:13.711Z,102399.17
2018-10-19T20:13:41.959Z,102398.48
2018-10-19T20:16:10.454Z,102395.03
2018-10-19T20:18:38.813Z,102396.66
2018-10-19T20:21:08.040Z,102397.54
2018-10-19T20:23:36.970Z,102400.81
2018-10-19T20:26:04.858Z,102404.79
2018-10-19T20:28:33.829Z,102404.73
2018-10-19T20:31:02.138Z,102402.89
2018-10-19T20:33:30.499Z,102401.61
2018-10-19T20:35:58.832Z,102396.69
2018-10-19T20:38:27.251Z,102393.73
2018-10-19T20:40:55.045Z,102394.56
2018-10-19T20:43:23.905Z,102388.81
2018-10-19T20:45:52.231Z,102392.86
2018-10-19T20:48:20.631Z,102389.64
2018-10-19T20:50:48.954Z,102388.20
2018-10-19T20:53:17.535Z,102385.33
2018-10-19T20:55:45.403Z,102384.55
2018-10-19T20:58:14.305Z,102383.53
2018-10-19T21:00:42.690Z,102381.73
2018-10-19T21:03:11.032Z,102377.66
2018-10-19T21:05:39.431Z,102373.08
2018-10-19T21:08:07.783Z,102367.53
2018-10-19T21:10:36.093Z,102370.80
2018-10-19T21:13:03.900Z,102375.13
2018-10-19T21:15:32.217Z,102371.66
2018-10-19T21:18:00.532Z,102376.44
2018-10-19T21:20:29.468Z,102368.77
2018-10-19T21:22:57.894Z,102370.23
2018-10-19T21:25:26.279Z,102370.42
2018-10-19T21:27:54.074Z,102373.33
2018-10-19T21:30:23.132Z,102370.41
2018-10-19T21:32:51.598Z,102370.25
2018-10-19T21:35:19.396Z,102371.36
2018-10-19T21:37:48.372Z,102370.83
2018-10-19T21:40:16.697Z,102371.98
2018-10-19T21:42:45.068Z,102374.27
2018-10-19T21:45:12.811Z,102372.82
2018-10-19T21:47:41.238Z,102375.47
2018-10-19T21:50:09.599Z,102376.35
2018-10-19T21:52:38.499Z,102375.57
2018-10-19T21:55:06.816Z,102373.55
2018-10-19T21:57:34.541Z,102372.02
2018-10-19T22:00:02.856Z,102372.45
2018-10-19T22:02:31.757Z,102371.72
2018-10-19T22:05:00.141Z,102368.95
2018-10-19T22:07:27.847Z,102372.80
2018-10-19T22:15:24.882Z,102366.08
2018-10-19T22:17:53.496Z,102366.22
2018-10-19T22:20:21.817Z,102369.44
2018-10-19T22:22:49.614Z,102367.67
2018-10-19T22:25:17.963Z,102368.95
2018-10-19T22:27:46.782Z,102368.53
2018-10-19T22:30:15.113Z,102372.20
2018-10-19T22:32:43.422Z,102369.02
2018-10-19T22:35:11.790Z,102367.34
2018-10-19T22:37:39.483Z,102361.59
2018-10-19T22:40:07.802Z,102357.43
2018-10-19T22:42:36.706Z,102361.33
2018-10-19T22:45:05.033Z,102359.27
2018-10-19T22:47:33.345Z,102358.41
2018-10-19T22:50:01.378Z,102360.53
2018-10-19T22:52:29.404Z,102357.05
2018-10-19T22:54:57.810Z,102358.48
2018-10-19T22:57:26.044Z,102361.82
2018-10-19T22:59:54.370Z,102355.16
2018-10-19T23:02:22.697Z,102358.34
2018-10-19T23:04:51.006Z,102355.23
2018-10-19T23:07:19.910Z,102353.72
2018-10-19T23:09:47.783Z,102359.39
2018-10-19T23:12:16.557Z,102362.89
2018-10-19T23:14:44.873Z,102357.75
2018-10-19T23:17:13.251Z,102352.80
2018-10-19T23:19:40.942Z,102355.75
2018-10-19T23:22:09.848Z,102355.78
2018-10-19T23:24:38.169Z,102356.81
2018-10-19T23:27:06.481Z,102364.70
2018-10-19T23:29:34.218Z,102355.92
2018-10-19T23:32:03.120Z,102359.72
2018-10-19T23:34:31.445Z,102360.61
2018-10-19T23:36:59.184Z,102356.61
2018-10-19T23:39:28.083Z,102358.92
2018-10-19T23:41:55.821Z,102363.42
2018-10-19T23:44:24.717Z,102355.61
2018-10-19T23:46:52.460Z,102352.45
2018-10-19T23:49:21.358Z,102350.39
2018-10-19T23:51:49.712Z,102349.00
2018-10-19T23:54:17.458Z,102352.90
2018-10-19T23:56:46.350Z,102347.78
2018-10-19T23:59:14.163Z,102346.78
